Time;durP1;ratioP1;P1;durP2;ratioP2;P2;SDS_P1;SDS_P2;PMS_P1;PMS_P2;Temp;Humidity;BMP_temperature;BMP_pressure;BME280_temperature;BME280_humidity;BME280_pressure;Samples;Min_cycle;Max_cycle;Signal;HPM_P1;HPM_P2
2023/04/13 00:01:12;;;;;;;0.50;0.50;;;;;;;8.36;41.36;98969.03;4903401;29;20055;-83
2023/04/13 00:03:44;;;;;;;0.50;0.50;;;;;;;8.29;41.45;98962.91;4918151;29;20055;-83
2023/04/13 00:06:14;;;;;;;0.57;0.57;;;;;;;8.27;41.67;98962.31;4934594;29;20051;-83
2023/04/13 00:08:42;;;;;;;0.50;0.50;;;;;;;8.27;41.57;98968.53;4917938;29;20517;-83
2023/04/13 00:11:12;;;;;;;0.50;0.50;;;;;;;8.28;41.82;98969.34;4915428;29;20052;-84
2023/04/13 00:16:30;;;;;;;0.50;0.50;;;;;;;8.16;42.07;98972.81;4901826;29;20056;-82
2023/04/13 00:18:57;;;;;;;0.50;0.50;;;;;;;8.15;42.27;98975.72;4900105;29;20083;-82
2023/04/13 00:21:24;;;;;;;0.50;0.50;;;;;;;8.16;41.98;98983.56;4929156;29;20059;-83
2023/04/13 00:23:55;;;;;;;0.50;0.50;;;;;;;8.09;42.22;98982.84;4883221;29;20147;-83
2023/04/13 00:26:24;;;;;;;0.50;0.50;;;;;;;8.01;42.39;98977.81;4899149;29;20059;-83
2023/04/13 00:28:53;;;;;;;0.60;0.60;;;;;;;7.89;42.89;98982.31;4915351;29;20056;-82
2023/04/13 00:31:22;;;;;;;0.50;0.50;;;;;;;7.79;42.91;98978.28;4915180;29;20047;-83
2023/04/13 00:33:49;;;;;;;0.52;0.52;;;;;;;7.74;42.95;98972.78;4898461;29;20060;-83
2023/04/13 00:36:16;;;;;;;0.60;0.60;;;;;;;7.75;43.15;98973.63;4915331;29;20052;-83
2023/04/13 00:39:02;;;;;;;0.57;0.57;;;;;;;7.69;43.23;98982.56;4915098;29;20063;-82
2023/04/13 00:41:31;;;;;;;0.60;0.60;;;;;;;7.70;43.24;98982.34;4915212;29;20059;-83
2023/04/13 00:44:01;;;;;;;0.52;0.52;;;;;;;7.72;43.50;98971.34;4915020;29;20415;-83
2023/04/13 00:46:28;;;;;;;0.60;0.60;;;;;;;7.72;43.36;98974.88;4934159;29;20134;-83
2023/04/13 00:48:57;;;;;;;0.60;0.60;;;;;;;7.70;43.37;98974.28;4921178;29;20047;-83
2023/04/13 00:51:23;;;;;;;0.60;0.60;;;;;;;7.67;43.41;98974.75;4935256;28;20043;-83
2023/04/13 00:53:53;;;;;;;0.60;0.60;;;;;;;7.71;43.37;98970.53;4901358;29;20075;-83
2023/04/13 00:56:21;;;;;;;0.60;0.60;;;;;;;7.70;43.45;98976.97;4934171;29;20422;-83
2023/04/13 00:58:48;;;;;;;0.60;0.60;;;;;;;7.68;43.34;98976.38;4917715;29;20408;-82
2023/04/13 01:01:18;;;;;;;0.55;0.55;;;;;;;7.63;43.42;98972.72;4933900;29;20086;-83
2023/04/13 01:03:45;;;;;;;0.60;0.60;;;;;;;7.59;43.49;98973.16;4933901;29;20061;-82
2023/04/13 01:06:28;;;;;;;0.60;0.60;;;;;;;7.62;43.12;98977.25;4933554;29;20054;-83
2023/04/13 01:09:10;;;;;;;0.55;0.55;;;;;;;7.59;43.29;98978.53;4900835;29;20051;-83
2023/04/13 01:11:42;;;;;;;0.50;0.50;;;;;;;7.58;43.17;98976.09;4916908;29;20052;-81
2023/04/13 01:14:22;;;;;;;0.60;0.60;;;;;;;7.52;43.45;98979.66;4933763;29;20078;-82
2023/04/13 01:17:04;;;;;;;0.60;0.60;;;;;;;7.52;43.33;98972.44;4932155;29;20138;-83
2023/04/13 01:19:55;;;;;;;0.57;0.57;;;;;;;7.47;43.54;98974.16;4885681;29;20051;-83
2023/04/13 01:22:32;;;;;;;0.60;0.60;;;;;;;7.45;43.58;98978.94;4901263;29;20052;-82
2023/04/13 01:25:21;;;;;;;0.50;0.50;;;;;;;7.43;43.41;98979.16;4916514;29;20122;-82
2023/04/13 01:27:54;;;;;;;0.60;0.60;;;;;;;7.40;43.54;98979.63;4916700;29;20052;-83
2023/04/13 01:30:24;;;;;;;0.50;0.50;;;;;;;7.42;43.71;98976.69;4901003;29;20056;-82
2023/04/13 01:32:57;;;;;;;0.60;0.60;;;;;;;7.37;43.60;98972.84;4932014;29;20051;-83
2023/04/13 01:35:28;;;;;;;0.60;0.60;;;;;;;7.34;43.58;98970.59;4901417;29;20055;-83
2023/04/13 01:37:57;;;;;;;0.60;0.60;;;;;;;7.35;43.82;98971.41;4900974;29;20114;-83
2023/04/13 01:40:28;;;;;;;0.52;0.52;;;;;;;7.33;43.77;98971.63;4916107;29;20048;-83
2023/04/13 01:42:56;;;;;;;0.60;0.60;;;;;;;7.29;43.95;98977.66;4926979;29;20047;-83
2023/04/13 01:45:47;;;;;;;0.60;0.60;;;;;;;7.29;43.92;98973.13;4908990;29;20055;-83
2023/04/13 01:48:41;;;;;;;0.60;0.60;;;;;;;7.24;43.96;98970.31;4898031;29;20110;-83
2023/04/13 01:51:31;;;;;;;0.60;0.60;;;;;;;7.20;43.83;98979.84;4916896;29;20059;-82
2023/04/13 01:54:06;;;;;;;0.60;0.60;;;;;;;7.18;43.93;98986.47;4901230;29;20055;-82
2023/04/13 01:56:34;;;;;;;0.60;0.60;;;;;;;7.17;44.09;98982.97;4933186;29;20051;-81
2023/04/13 01:59:02;;;;;;;0.60;0.60;;;;;;;7.18;44.16;98987.28;4900746;29;20051;-82
2023/04/13 02:01:29;;;;;;;0.60;0.60;;;;;;;7.21;44.06;98981.47;4900817;29;20055;-82
2023/04/13 02:03:58;;;;;;;0.60;0.60;;;;;;;7.24;44.20;98978.34;4916860;29;20525;-81
2023/04/13 02:06:29;;;;;;;0.60;0.60;;;;;;;7.23;43.76;98979.38;4920409;29;20059;-81
2023/04/13 02:08:58;;;;;;;0.60;0.60;;;;;;;7.24;43.99;98978.34;4917941;29;20052;-82
2023/04/13 02:11:27;;;;;;;0.60;0.60;;;;;;;7.27;44.32;98979.78;4917161;29;20426;-83
2023/04/13 02:13:56;;;;;;;0.60;0.60;;;;;;;7.32;44.03;98974.56;4917875;29;20667;-82
2023/04/13 02:16:24;;;;;;;0.50;0.50;;;;;;;7.38;43.84;98963.72;4919791;29;20530;-84
2023/04/13 02:18:51;;;;;;;0.60;0.60;;;;;;;7.50;43.79;98968.34;4924433;29;20059;-84
2023/04/13 02:21:19;;;;;;;0.60;0.60;;;;;;;7.53;43.63;98966.03;4918727;29;20062;-82
2023/04/13 02:23:47;;;;;;;0.60;0.60;;;;;;;7.58;43.51;98976.09;4923751;29;20108;-83
2023/04/13 02:26:17;;;;;;;0.55;0.55;;;;;;;7.64;43.53;98969.00;4919856;29;20131;-82
2023/04/13 02:28:48;;;;;;;0.60;0.60;;;;;;;7.66;43.45;98978.47;4902831;29;20063;-83
2023/04/13 02:31:18;;;;;;;0.55;0.55;;;;;;;7.69;43.50;98967.25;4911056;29;20068;-82
2023/04/13 02:33:46;;;;;;;0.50;0.50;;;;;;;7.73;43.17;98973.84;4918047;29;20048;-84
2023/04/13 02:36:17;;;;;;;0.50;0.50;;;;;;;7.79;43.01;98972.09;4917265;29;20060;-82
2023/04/13 02:38:53;;;;;;;0.60;0.60;;;;;;;7.83;43.05;98965.22;4932990;29;20137;-82
2023/04/13 02:41:43;;;;;;;0.60;0.60;;;;;;;7.87;42.85;98968.28;4858924;29;20057;-83
2023/04/13 02:44:17;;;;;;;0.60;0.60;;;;;;;7.88;42.65;98961.88;4855638;29;20058;-83
2023/04/13 02:46:56;;;;;;;0.60;0.60;;;;;;;7.87;42.75;98961.03;4858578;29;20069;-82
2023/04/13 02:49:23;;;;;;;0.60;0.60;;;;;;;7.91;42.81;98964.91;4843416;29;20602;-83
2023/04/13 02:52:12;;;;;;;0.57;0.57;;;;;;;7.96;42.74;98973.09;4852399;29;20056;-83
2023/04/13 02:54:53;;;;;;;0.60;0.60;;;;;;;7.98;42.68;98972.88;4843544;29;20125;-82
2023/04/13 02:57:24;;;;;;;0.60;0.60;;;;;;;8.02;42.52;98974.88;4844797;29;20057;-83
2023/04/13 02:59:53;;;;;;;0.60;0.60;;;;;;;8.08;42.56;98975.84;4858604;29;20071;-82
2023/04/13 03:02:22;;;;;;;0.57;0.57;;;;;;;8.13;42.11;98978.66;4859303;29;20125;-83
2023/04/13 03:04:49;;;;;;;0.50;0.50;;;;;;;8.19;42.15;98975.03;4858845;29;20061;-82
2023/04/13 03:07:25;;;;;;;0.50;0.50;;;;;;;8.22;42.09;98971.06;4858663;29;20109;-82
2023/04/13 03:09:52;;;;;;;0.60;0.60;;;;;;;8.27;42.10;98973.91;4849008;29;20458;-81
2023/04/13 03:12:19;;;;;;;0.50;0.50;;;;;;;8.29;42.04;98984.44;4840070;29;20058;-82
2023/04/13 03:14:50;;;;;;;0.60;0.60;;;;;;;8.32;42.14;98978.59;4839630;29;20150;-82
2023/04/13 03:17:20;;;;;;;0.60;0.60;;;;;;;8.33;42.03;98977.53;4840145;29;20073;-82
2023/04/13 03:19:48;;;;;;;0.60;0.60;;;;;;;8.34;42.21;98968.44;4909092;29;20048;-82
2023/04/13 03:22:18;;;;;;;0.60;0.60;;;;;;;8.35;42.31;98978.13;4916916;29;20059;-84
2023/04/13 03:24:48;;;;;;;0.60;0.60;;;;;;;8.36;42.14;98979.78;4915484;29;20479;-83
2023/04/13 03:27:22;;;;;;;0.60;0.60;;;;;;;8.37;42.17;98976.84;4915446;29;20056;-83
2023/04/13 03:29:52;;;;;;;0.60;0.60;;;;;;;8.37;42.22;98984.09;4900487;29;20056;-83
2023/04/13 03:32:21;;;;;;;0.50;0.50;;;;;;;8.38;42.18;98978.50;4917305;29;20060;-82
2023/04/13 03:34:55;;;;;;;0.50;0.50;;;;;;;8.36;42.01;98975.22;4930048;29;20097;-83
2023/04/13 03:37:23;;;;;;;0.60;0.60;;;;;;;8.42;42.18;98978.88;4954727;29;20047;-83
2023/04/13 03:39:53;;;;;;;0.60;0.60;;;;;;;8.41;42.14;98978.06;4921541;29;20114;-83
2023/04/13 03:42:25;;;;;;;0.60;0.60;;;;;;;8.42;42.09;98976.19;4903832;29;20058;-84
2023/04/13 03:44:56;;;;;;;0.50;0.50;;;;;;;8.44;42.08;98982.16;4920782;29;20138;-84
2023/04/13 03:47:23;;;;;;;0.50;0.50;;;;;;;8.45;41.98;98981.91;4934163;29;20083;-83
2023/04/13 03:49:57;;;;;;;0.50;0.50;;;;;;;8.45;42.20;98979.22;4935151;29;20043;-83
2023/04/13 03:52:27;;;;;;;0.50;0.50;;;;;;;8.47;42.04;98984.38;4919974;29;20099;-84
2023/04/13 03:54:58;;;;;;;0.57;0.57;;;;;;;8.47;42.17;98984.38;4934379;29;20496;-83
2023/04/13 03:57:30;;;;;;;0.50;0.50;;;;;;;8.44;42.38;98976.78;4912476;29;20334;-85
2023/04/13 03:59:59;;;;;;;0.57;0.57;;;;;;;8.51;42.25;98988.25;4909824;29;20044;-84
2023/04/13 04:02:40;;;;;;;0.50;0.50;;;;;;;8.58;41.92;98997.03;4920184;29;20052;-84
2023/04/13 04:05:13;;;;;;;0.60;0.60;;;;;;;8.65;42.07;98994.22;4914606;29;20052;-83
2023/04/13 04:07:42;;;;;;;0.60;0.60;;;;;;;8.68;41.77;98989.22;4915110;29;20080;-83
2023/04/13 04:10:09;;;;;;;0.60;0.60;;;;;;;8.76;41.59;98987.22;4918653;29;20476;-83
2023/04/13 04:12:37;;;;;;;0.60;0.60;;;;;;;8.81;41.54;98985.47;4934958;29;20076;-83
2023/04/13 04:15:07;;;;;;;0.60;0.60;;;;;;;8.89;41.11;98992.38;4917139;29;20130;-86
2023/04/13 04:17:35;;;;;;;0.60;0.60;;;;;;;8.93;41.28;98993.53;4916457;29;20146;-85
2023/04/13 04:20:06;;;;;;;0.60;0.60;;;;;;;8.98;41.43;98996.34;4933157;29;20507;-85
2023/04/13 04:22:36;;;;;;;0.52;0.52;;;;;;;9.02;41.13;98986.75;4910859;29;20142;-83
2023/04/13 04:25:05;;;;;;;0.60;0.60;;;;;;;9.11;41.16;98995.28;4911423;29;20461;-84
2023/04/13 04:27:37;;;;;;;0.60;0.60;;;;;;;9.13;41.25;98985.13;4898142;29;20598;-84
2023/04/13 04:30:09;;;;;;;0.60;0.60;;;;;;;9.22;41.26;98999.06;4898214;29;20047;-85
2023/04/13 04:32:40;;;;;;;0.60;0.60;;;;;;;9.25;41.21;98996.69;4934652;29;20043;-83
2023/04/13 04:35:16;;;;;;;0.60;0.60;;;;;;;9.35;41.08;99000.69;4926260;29;20096;-85
2023/04/13 04:37:54;;;;;;;0.60;0.60;;;;;;;9.40;40.75;99000.78;4930196;29;20087;-84
2023/04/13 04:40:24;;;;;;;0.60;0.60;;;;;;;9.44;40.74;99000.03;4951770;29;20055;-85
2023/04/13 04:42:51;;;;;;;0.55;0.55;;;;;;;9.51;40.66;99002.63;4917149;29;20047;-86
2023/04/13 04:45:28;;;;;;;0.60;0.60;;;;;;;9.60;40.37;99008.47;4922949;29;20126;-88
2023/04/13 04:47:58;;;;;;;0.60;0.60;;;;;;;9.66;40.67;99010.22;4922643;29;20052;-84
2023/04/13 04:50:36;;;;;;;0.60;0.60;;;;;;;9.69;40.60;99007.03;4932092;29;20052;-89
2023/04/13 04:53:13;;;;;;;0.60;0.60;;;;;;;9.74;40.61;99002.56;4908098;29;20154;-85
2023/04/13 04:55:45;;;;;;;0.60;0.60;;;;;;;9.81;40.51;99005.13;4875953;29;20148;-86
2023/04/13 04:58:26;;;;;;;0.50;0.50;;;;;;;9.87;40.30;99006.84;4898277;29;20142;-83
2023/04/13 05:00:55;;;;;;;0.60;0.60;;;;;;;9.93;40.49;99000.50;4896922;29;20523;-85
2023/04/13 05:03:23;;;;;;;0.60;0.60;;;;;;;10.01;40.25;99003.88;4898139;29;20503;-87
2023/04/13 05:06:01;;;;;;;0.60;0.60;;;;;;;10.06;40.17;99001.28;4898183;29;20052;-83
2023/04/13 05:08:31;;;;;;;0.50;0.50;;;;;;;10.12;39.71;98994.91;4896986;29;20083;-85
2023/04/13 05:11:04;;;;;;;0.60;0.60;;;;;;;10.20;40.03;98997.22;4913408;29;20064;-86
2023/04/13 05:13:32;;;;;;;0.60;0.60;;;;;;;10.24;39.79;98982.19;4897676;29;20048;-88
2023/04/13 05:16:18;;;;;;;0.55;0.55;;;;;;;10.41;40.14;98976.88;4897936;29;20079;-87
2023/04/13 05:18:47;;;;;;;0.60;0.60;;;;;;;10.53;39.67;98987.56;4897831;29;20474;-87
2023/04/13 05:21:32;;;;;;;0.57;0.57;;;;;;;10.59;39.50;98978.50;4897834;29;20112;-87
2023/04/13 05:24:03;;;;;;;0.60;0.60;;;;;;;10.67;39.42;98974.59;4897302;29;20048;-86
2023/04/13 05:26:31;;;;;;;0.60;0.60;;;;;;;10.78;39.24;98971.78;4898031;29;20060;-88
2023/04/13 05:29:00;;;;;;;0.60;0.60;;;;;;;10.91;38.96;98972.50;4880004;29;20476;-87
2023/04/13 05:31:32;;;;;;;0.60;0.60;;;;;;;11.08;38.56;98965.19;4879893;29;20067;-86
2023/04/13 05:34:00;;;;;;;0.60;0.60;;;;;;;11.23;38.30;98976.22;4871468;29;20056;-88
2023/04/13 05:36:28;;;;;;;0.60;0.60;;;;;;;11.31;38.43;98971.44;4864459;29;20504;-88
2023/04/13 05:38:58;;;;;;;0.60;0.60;;;;;;;11.42;38.35;98973.22;4864685;29;20052;-88
2023/04/13 05:41:29;;;;;;;0.60;0.60;;;;;;;11.49;37.83;98966.56;4848791;29;20140;-88
2023/04/13 05:46:52;;;;;;;0.63;0.63;;;;;;;11.60;37.60;98977.50;4896004;29;20087;-86
2023/04/13 05:49:21;;;;;;;0.60;0.60;;;;;;;11.60;37.47;98961.28;4895946;29;20119;-88
2023/04/13 05:51:48;;;;;;;0.50;0.50;;;;;;;11.73;37.13;98974.41;4881205;29;20071;-86
2023/04/13 05:54:18;;;;;;;0.60;0.60;;;;;;;11.73;37.26;98968.19;4898375;29;20048;-87
2023/04/13 05:56:48;;;;;;;0.52;0.52;;;;;;;11.75;37.09;98971.44;4894395;29;20072;-88
2023/04/13 05:59:15;;;;;;;0.50;0.50;;;;;;;11.77;36.85;98963.91;4878518;29;20119;-88
2023/04/13 06:01:45;;;;;;;0.50;0.50;;;;;;;11.70;36.95;98964.94;4879195;29;20053;-87
2023/04/13 06:04:14;;;;;;;0.50;0.50;;;;;;;11.78;36.91;98979.88;4864845;29;20048;-86
2023/04/13 06:06:43;;;;;;;0.60;0.60;;;;;;;11.80;36.89;98960.69;4896610;29;20056;-88
2023/04/13 06:09:12;;;;;;;0.60;0.60;;;;;;;11.82;36.85;98953.16;4881480;29;20168;-87
2023/04/13 06:11:39;;;;;;;0.57;0.57;;;;;;;11.98;36.53;98978.53;4897330;29;20085;-86
2023/04/13 06:14:06;;;;;;;0.60;0.60;;;;;;;12.09;36.41;98974.84;4864862;29;20592;-87
2023/04/13 06:16:34;;;;;;;0.60;0.60;;;;;;;12.22;36.35;98976.31;4896421;29;20128;-85
2023/04/13 06:19:04;;;;;;;0.60;0.60;;;;;;;12.28;36.22;98980.69;4894505;29;20312;-88
2023/04/13 06:21:36;;;;;;;0.60;0.60;;;;;;;12.38;36.15;98982.69;4863353;29;20052;-87
2023/04/13 06:24:04;;;;;;;0.60;0.60;;;;;;;12.40;35.89;98981.34;4915558;29;20059;-89
2023/04/13 06:26:34;;;;;;;0.60;0.60;;;;;;;12.42;36.04;98984.63;4916281;29;20058;-87
2023/04/13 06:29:04;;;;;;;0.63;0.63;;;;;;;12.53;35.63;98985.53;4930767;29;20052;-88
2023/04/13 06:31:40;;;;;;;0.60;0.60;;;;;;;12.63;35.82;98984.78;4897416;29;20055;-87
2023/04/13 06:34:12;;;;;;;0.50;0.50;;;;;;;12.71;35.89;98981.59;4897498;29;20139;-88
2023/04/13 06:36:40;;;;;;;0.60;0.60;;;;;;;12.77;35.89;98981.38;4897303;29;20052;-87
2023/04/13 06:39:14;;;;;;;0.60;0.60;;;;;;;12.68;35.74;98963.97;4896991;29;20111;-88
2023/04/13 06:41:47;;;;;;;0.60;0.60;;;;;;;12.86;35.36;98976.28;4897340;29;20052;-88
2023/04/13 06:44:22;;;;;;;0.60;0.60;;;;;;;12.94;35.53;98977.72;4898743;29;20153;-88
2023/04/13 06:46:58;;;;;;;0.57;0.57;;;;;;;12.97;35.30;98980.72;4905020;29;20120;-88
2023/04/13 06:49:32;;;;;;;0.60;0.60;;;;;;;12.97;35.27;98978.00;4918966;29;20080;-88
2023/04/13 06:52:00;;;;;;;0.60;0.60;;;;;;;13.03;35.26;98984.28;4900062;29;20052;-87
2023/04/13 06:54:35;;;;;;;0.50;0.50;;;;;;;13.10;35.06;98986.78;4890649;29;20059;-86
2023/04/13 06:57:16;;;;;;;0.50;0.50;;;;;;;13.25;35.07;98986.88;4904609;29;20062;-88
2023/04/13 06:59:46;;;;;;;0.50;0.50;;;;;;;13.42;34.71;98995.66;4902939;29;20044;-86
2023/04/13 07:02:13;;;;;;;0.50;0.50;;;;;;;13.57;34.39;98999.50;4908590;29;20176;-84
2023/04/13 07:04:40;;;;;;;0.60;0.60;;;;;;;13.76;34.20;98991.75;4918136;29;20082;-84
2023/04/13 07:07:11;;;;;;;0.60;0.60;;;;;;;13.95;34.34;98997.47;4896533;29;20066;-89
2023/04/13 07:09:39;;;;;;;0.50;0.50;;;;;;;14.13;33.81;98997.00;4894745;29;20058;-88
2023/04/13 07:12:06;;;;;;;0.57;0.57;;;;;;;14.51;33.30;99008.47;4908138;29;20511;-86
2023/04/13 07:14:37;;;;;;;0.60;0.60;;;;;;;14.82;33.00;99000.38;4924552;29;20044;-87
2023/04/13 07:17:05;;;;;;;0.50;0.50;;;;;;;15.35;32.76;98995.41;4908442;29;20515;-88
2023/04/13 07:19:35;;;;;;;0.50;0.50;;;;;;;15.65;32.08;98991.78;4908706;29;20058;-85
2023/04/13 07:22:07;;;;;;;0.50;0.50;;;;;;;15.90;31.55;99004.47;4938485;29;20077;-86
2023/04/13 07:24:35;;;;;;;0.50;0.50;;;;;;;16.00;31.24;99000.88;4902608;29;20047;-87
2023/04/13 07:27:07;;;;;;;0.50;0.50;;;;;;;15.94;31.45;99002.81;4914358;29;20534;-86
2023/04/13 07:29:34;;;;;;;0.50;0.50;;;;;;;15.75;31.63;98989.03;4935675;29;20058;-86
2023/04/13 07:32:07;;;;;;;0.50;0.50;;;;;;;15.76;31.74;99000.72;4904259;29;20076;-83
2023/04/13 07:34:36;;;;;;;0.40;0.40;;;;;;;15.57;31.22;99001.31;4925431;29;20479;-85
2023/04/13 07:37:03;;;;;;;0.50;0.50;;;;;;;15.68;31.21;99002.09;4918829;29;20052;-86
2023/04/13 07:39:32;;;;;;;0.50;0.50;;;;;;;16.00;31.01;99007.16;4919246;29;20535;-86
2023/04/13 07:42:00;;;;;;;0.60;0.60;;;;;;;16.17;30.64;99008.69;4917104;29;20138;-85
2023/04/13 07:44:42;;;;;;;0.50;0.50;;;;;;;16.32;30.06;99007.78;4918119;29;20083;-84
2023/04/13 07:47:12;;;;;;;0.50;0.50;;;;;;;16.66;29.90;99003.19;4916405;29;20459;-85
2023/04/13 07:49:53;;;;;;;0.60;0.60;;;;;;;16.86;29.41;98996.78;4927645;29;20056;-85
2023/04/13 07:52:23;;;;;;;0.60;0.60;;;;;;;17.04;28.62;98981.63;4932207;29;20066;-85
2023/04/13 07:54:53;;;;;;;0.50;0.50;;;;;;;17.10;28.79;98979.66;4923308;29;20087;-85
2023/04/13 07:57:21;;;;;;;0.50;0.50;;;;;;;17.36;28.77;98985.66;4919333;29;20141;-86
2023/04/13 07:59:54;;;;;;;0.50;0.50;;;;;;;17.49;28.57;98984.13;4924422;29;20048;-85
2023/04/13 08:02:22;;;;;;;0.50;0.50;;;;;;;17.60;28.04;98982.09;4906563;29;20544;-85
2023/04/13 08:04:53;;;;;;;0.57;0.57;;;;;;;17.91;27.65;98988.03;4921875;29;20533;-85
2023/04/13 08:07:26;;;;;;;0.60;0.60;;;;;;;17.98;26.98;98983.03;4904005;29;20431;-85
2023/04/13 08:09:53;;;;;;;0.50;0.50;;;;;;;18.16;26.90;98979.50;4895064;29;20463;-85
2023/04/13 08:12:23;;;;;;;0.60;0.60;;;;;;;18.24;26.51;98961.63;4915164;29;20062;-84
2023/04/13 08:14:51;;;;;;;0.60;0.60;;;;;;;18.27;26.40;98974.69;4899790;29;20062;-85
2023/04/13 08:17:23;;;;;;;0.60;0.60;;;;;;;18.15;26.18;98975.16;4914605;29;20056;-85
2023/04/13 08:19:51;;;;;;;0.40;0.40;;;;;;;17.80;26.82;98973.72;4928522;29;20619;-84
2023/04/13 08:22:20;;;;;;;0.50;0.50;;;;;;;17.32;27.00;98974.50;4913040;29;20047;-85
2023/04/13 08:24:49;;;;;;;0.40;0.40;;;;;;;17.08;27.37;98971.75;4917714;29;20043;-86
2023/04/13 08:27:26;;;;;;;0.40;0.40;;;;;;;16.90;28.02;98962.38;4917815;29;20059;-86
2023/04/13 08:30:00;;;;;;;0.40;0.40;;;;;;;16.84;28.05;98970.91;4935175;29;20483;-84
2023/04/13 08:32:42;;;;;;;0.40;0.40;;;;;;;16.87;28.03;98976.59;4918385;29;20062;-86
2023/04/13 08:35:11;;;;;;;0.50;0.50;;;;;;;16.67;28.13;98963.94;4902614;29;20062;-84
2023/04/13 08:37:39;;;;;;;0.40;0.40;;;;;;;16.63;28.28;98986.56;4935070;29;20079;-86
2023/04/13 08:40:10;;;;;;;0.40;0.40;;;;;;;16.59;28.20;98991.00;4918469;29;20809;-85
2023/04/13 08:42:43;;;;;;;0.40;0.40;;;;;;;16.67;28.43;98974.03;4917313;29;20047;-87
2023/04/13 08:45:11;;;;;;;0.47;0.47;;;;;;;16.73;28.08;98988.41;4934084;29;20511;-86
2023/04/13 08:47:45;;;;;;;0.40;0.40;;;;;;;16.65;28.19;98987.13;4902399;29;20400;-85
2023/04/13 08:50:15;;;;;;;0.38;0.38;;;;;;;16.79;28.15;98988.13;4917295;29;20043;-86
2023/04/13 08:52:46;;;;;;;0.47;0.47;;;;;;;17.03;27.81;98993.63;4934431;29;20119;-85
2023/04/13 08:55:16;;;;;;;0.40;0.40;;;;;;;17.18;27.79;98987.19;4901266;29;20056;-86
2023/04/13 08:57:48;;;;;;;0.50;0.50;;;;;;;17.57;27.39;98988.16;4942582;29;20146;-87
2023/04/13 09:00:18;;;;;;;0.40;0.40;;;;;;;17.27;27.73;98973.75;4894191;29;20059;-86
2023/04/13 09:02:53;;;;;;;0.40;0.40;;;;;;;17.36;27.54;98982.91;4917739;29;20151;-86
2023/04/13 09:05:32;;;;;;;;;;;;;;;17.54;27.29;98998.53;4933242;29;20130;-84
2023/04/13 09:08:06;;;;;;;0.50;0.50;;;;;;;18.26;26.56;98991.38;4927177;29;19962;-86
2023/04/13 09:10:36;;;;;;;;;;;;;;;18.26;26.80;98994.94;4892788;29;20142;-87
2023/04/13 09:13:06;;;;;;;0.50;0.50;;;;;;;18.26;26.56;98988.66;4916663;29;19982;-87
2023/04/13 09:15:33;;;;;;;0.40;0.40;;;;;;;18.04;26.46;98998.22;4934737;29;20130;-84
2023/04/13 09:18:19;;;;;;;0.50;0.50;;;;;;;17.85;26.78;98991.91;4913802;29;20047;-85
2023/04/13 09:20:59;;;;;;;0.50;0.50;;;;;;;18.16;26.79;98998.63;4816021;29;10001326;-86
2023/04/13 09:23:26;;;;;;;0.40;0.40;;;;;;;18.11;26.74;98989.69;4912574;29;20268;-84
2023/04/13 09:26:06;;;;;;;0.50;0.50;;;;;;;17.91;27.05;98985.31;4913197;29;20062;-85
2023/04/13 09:28:44;;;;;;;0.50;0.50;;;;;;;17.85;27.04;98986.47;4908176;29;20051;-86
2023/04/13 09:31:12;;;;;;;0.60;0.60;;;;;;;18.52;26.24;98991.81;4904672;29;20047;-86
2023/04/13 09:33:48;;;;;;;0.45;0.45;;;;;;;19.35;25.17;98983.84;4930229;29;20055;-85
2023/04/13 09:36:19;;;;;;;0.50;0.50;;;;;;;18.90;25.57;98987.13;4907848;29;20523;-85
2023/04/13 09:38:54;;;;;;;0.40;0.40;;;;;;;18.49;26.11;98986.94;4924909;29;20056;-87
2023/04/13 09:41:34;;;;;;;0.50;0.50;;;;;;;18.45;26.55;98983.16;4929959;29;20340;-87
2023/04/13 09:44:23;;;;;;;0.40;0.40;;;;;;;18.36;26.73;98974.84;4930967;29;20059;-88
2023/04/13 09:47:01;;;;;;;0.55;0.55;;;;;;;18.76;26.00;98980.78;4912819;29;20051;-87
2023/04/13 09:49:40;;;;;;;0.50;0.50;;;;;;;19.20;25.55;98968.53;4911443;29;20071;-85
2023/04/13 09:52:23;;;;;;;0.50;0.50;;;;;;;19.60;24.91;98966.13;4921121;29;20063;-86
2023/04/13 09:54:52;;;;;;;0.60;0.60;;;;;;;20.41;24.25;98970.94;4913608;29;20087;-86
2023/04/13 09:57:30;;;;;;;0.50;0.50;;;;;;;20.71;23.99;98967.50;4894770;29;20060;-88
2023/04/13 10:00:00;;;;;;;0.50;0.50;;;;;;;20.61;23.77;98962.28;4929887;29;20511;-86
2023/04/13 10:02:38;;;;;;;0.40;0.40;;;;;;;19.79;24.41;98957.81;4917076;29;20111;-88
2023/04/13 10:05:32;;;;;;;0.50;0.50;;;;;;;19.88;24.32;98955.97;4907212;29;20056;-87
2023/04/13 10:08:04;;;;;;;0.50;0.50;;;;;;;20.18;24.00;98953.66;4898032;29;20174;-89
2023/04/13 10:10:35;;;;;;;0.50;0.50;;;;;;;20.98;23.25;98962.97;4924926;29;20071;-86
2023/04/13 10:13:11;;;;;;;0.50;0.50;;;;;;;21.16;22.48;98933.69;4926371;29;20052;-87
2023/04/13 10:16:11;;;;;;;0.50;0.50;;;;;;;20.65;23.00;98954.22;4906195;29;20470;-88
2023/04/13 10:19:01;;;;;;;0.50;0.50;;;;;;;20.82;22.89;98956.28;4924027;29;20396;-86
2023/04/13 10:21:38;;;;;;;0.60;0.60;;;;;;;21.56;22.27;98952.94;4901617;29;20511;-89
2023/04/13 10:24:11;;;;;;;0.50;0.50;;;;;;;21.91;21.68;98953.81;4904131;29;20515;-88
2023/04/13 10:26:53;;;;;;;0.60;0.60;;;;;;;22.23;21.69;98954.50;4918046;29;20412;-87
2023/04/13 10:29:31;;;;;;;0.60;0.60;;;;;;;22.57;20.92;98941.91;4916434;29;20147;-85
2023/04/13 10:32:02;;;;;;;0.60;0.60;;;;;;;23.01;20.15;98946.19;4905604;29;20598;-86
2023/04/13 10:34:34;;;;;;;0.60;0.60;;;;;;;23.40;19.86;98946.22;4909281;29;20054;-87
2023/04/13 10:37:06;;;;;;;0.60;0.60;;;;;;;23.86;19.90;98952.81;4894316;29;20048;-88
2023/04/13 10:39:34;;;;;;;0.52;0.52;;;;;;;23.96;19.84;98958.72;4936087;29;20078;-84
2023/04/13 10:42:06;;;;;;;0.50;0.50;;;;;;;23.66;19.70;98959.84;4916444;29;20095;-86
2023/04/13 10:44:47;;;;;;;0.40;0.40;;;;;;;22.71;20.66;98956.25;4900204;29;20138;-84
2023/04/13 10:47:19;;;;;;;0.50;0.50;;;;;;;22.20;21.02;98955.16;4916447;29;20055;-85
2023/04/13 10:49:48;;;;;;;0.60;0.60;;;;;;;22.16;21.35;98943.97;4909059;29;20111;-86
2023/04/13 10:52:16;;;;;;;0.50;0.50;;;;;;;23.06;20.61;98934.19;4908729;29;20433;-86
2023/04/13 10:54:44;;;;;;;0.60;0.60;;;;;;;23.47;20.02;98952.00;4936133;29;20051;-87
2023/04/13 10:57:11;;;;;;;0.60;0.60;;;;;;;23.35;19.79;98955.47;4937859;29;20150;-86
2023/04/13 10:59:41;;;;;;;0.50;0.50;;;;;;;23.10;19.78;98955.22;4933597;29;20103;-86
2023/04/13 11:02:24;;;;;;;;;;;;;;;23.44;20.05;98963.69;4936352;29;20074;-86
2023/04/13 11:04:59;;;;;;;0.50;0.50;;;;;;;23.34;19.90;98949.13;4925185;29;19970;-86
2023/04/13 11:07:28;;;;;;;0.50;0.50;;;;;;;22.91;20.37;98952.00;4905225;29;20500;-86
2023/04/13 11:10:00;;;;;;;0.45;0.45;;;;;;;22.55;20.70;98946.91;4927847;29;20055;-85
2023/04/13 11:12:29;;;;;;;0.50;0.50;;;;;;;22.40;20.62;98948.22;4916876;29;20062;-85
2023/04/13 11:15:01;;;;;;;0.40;0.40;;;;;;;21.81;21.11;98948.63;4927691;29;20058;-85
2023/04/13 11:17:32;;;;;;;0.40;0.40;;;;;;;21.01;21.55;98948.63;4916993;29;20084;-84
2023/04/13 11:20:05;;;;;;;0.40;0.40;;;;;;;21.04;21.57;98960.91;4905548;29;20422;-87
2023/04/13 11:22:35;;;;;;;0.40;0.40;;;;;;;21.43;21.61;98954.66;4935747;29;20079;-85
2023/04/13 11:25:08;;;;;;;0.60;0.60;;;;;;;21.96;20.66;98945.41;4927161;29;20147;-84
2023/04/13 11:27:36;;;;;;;0.50;0.50;;;;;;;22.71;19.44;98950.75;4923618;29;20052;-87
2023/04/13 11:30:05;;;;;;;0.50;0.50;;;;;;;23.44;19.18;98952.66;4899552;29;20044;-85
2023/04/13 11:32:33;;;;;;;0.60;0.60;;;;;;;24.28;18.66;98941.78;4926178;29;20047;-86
2023/04/13 11:35:12;;;;;;;0.50;0.50;;;;;;;23.90;18.82;98935.28;4915026;29;20106;-86
2023/04/13 11:37:48;;;;;;;0.40;0.40;;;;;;;23.11;19.64;98939.53;4934220;29;20079;-86
2023/04/13 11:40:19;;;;;;;0.50;0.50;;;;;;;22.40;20.36;98950.97;4918075;29;20066;-84
2023/04/13 11:42:55;;;;;;;0.40;0.40;;;;;;;21.94;20.34;98931.19;4933036;29;20051;-87
2023/04/13 11:45:25;;;;;;;0.50;0.50;;;;;;;22.14;20.47;98946.25;4927238;29;20556;-88
2023/04/13 11:47:54;;;;;;;0.50;0.50;;;;;;;23.12;19.70;98946.66;4899382;29;20052;-88
2023/04/13 11:50:22;;;;;;;0.50;0.50;;;;;;;23.64;19.30;98946.41;4910314;29;20059;-87
2023/04/13 11:52:55;;;;;;;0.50;0.50;;;;;;;23.96;19.63;98942.19;4901718;29;20084;-87
2023/04/13 11:55:24;;;;;;;0.50;0.50;;;;;;;24.04;19.31;98951.53;4907328;29;20075;-87
2023/04/13 11:57:54;;;;;;;0.50;0.50;;;;;;;24.32;19.02;98931.69;4911967;29;20396;-87
2023/04/13 12:00:25;;;;;;;0.50;0.50;;;;;;;24.76;18.81;98937.63;4933015;29;20151;-86
2023/04/13 12:02:55;;;;;;;0.40;0.40;;;;;;;24.63;18.03;98937.59;4918581;29;20134;-86
2023/04/13 12:05:30;;;;;;;0.50;0.50;;;;;;;24.25;18.39;98923.16;4935432;29;20058;-87